Flight Track Log - Related Links

Times and Time Zones

All times are in EDT time to prevent confusion due to time zone crossing. See the SWA1533 flight status page for this flight to view local times or setup timezone preferences in your user account.

Time Position Orientation Groundspeed Altitude Reporting Facility
EDT Latitude Longitude Course Direction KTS MPH feet Rate Location/Type
Wed 07:27:45 PM 42.9500 -71.4333 324° Northwest 156 180 1,200  Level KA90
Wed 07:28:15 PM 42.9667 -71.4500 324° Northwest 172 198 2,000 1,867 Climbing KA90
Wed 07:29:15 PM 43.0167 -71.4000 36° Northeast 238 274 4,000 2,316 Climbing KA90
Wed 07:30:09 PM 43.0333 -71.3167 75° East 269 310 6,400 2,724 Climbing KA90
Wed 07:31:47 PM 43.0578 -71.1358 79° East 329 379 10,900 3,019 Climbing Boston Center
Wed 07:32:48 PM 43.0772 -71.0131 78° East 334 384 14,400 3,223 Climbing Boston Center
Wed 07:33:48 PM 43.0239 -70.9150 127° Southeast 316 364 17,400 2,441 Climbing Boston Center
Wed 07:34:46 PM 42.9444 -70.8972 171° South 257 296 19,200 2,200 Climbing Boston Center
Wed 07:35:48 PM 42.8617 -70.9417 201° Southwest 260 299 21,800 2,300 Climbing Boston Center
Wed 07:36:46 PM 42.7747 -70.9861 201° Southwest 303 349 23,800 2,136 Climbing Boston Center
Wed 07:37:46 PM 42.6772 -71.0308 199° South 335 386 26,000 1,950 Climbing Boston Center
Wed 07:38:46 PM 42.5822 -71.0978 207° Southwest 367 422 27,700 1,835 Climbing Boston Center
Wed 07:39:47 PM 42.4975 -71.1814 216° Southwest 379 436 29,700 1,983 Climbing Boston Center
Wed 07:40:47 PM 42.4131 -71.2703 218° Southwest 390 449 31,700 1,537 Climbing Boston Center
Wed 07:41:48 PM 42.3244 -71.3589 216° Southwest 395 455 32,800 1,109 Climbing Boston Center
Wed 07:42:46 PM 42.2314 -71.4531 217° Southwest 406 467 33,900 610 Climbing Boston Center
Wed 07:43:46 PM 42.1406 -71.5442 217° Southwest 413 475 34,000 50 Climbing Boston Center
Wed 07:44:47 PM 42.0350 -71.6436 215° Southwest 424 488 34,000  Level Boston Center
Wed 07:45:46 PM 41.9439 -71.7339 216° Southwest 424 488 34,000  Level Boston Center
Wed 07:46:47 PM 41.8528 -71.8242 216° Southwest 419 482 34,000  Level Boston Center
Wed 07:47:47 PM 41.7594 -71.9142 216° Southwest 414 476 34,000  Level Boston Center
Wed 07:48:48 PM 41.6681 -72.0039 216° Southwest 414 476 34,000  Level Boston Center
Wed 07:49:49 PM 41.5744 -72.0933 216° Southwest 414 476 34,000  Level Boston Center
Wed 07:50:46 PM 41.4811 -72.1825 216° Southwest 414 476 34,000  Level Boston Center
Wed 07:51:47 PM 41.3875 -72.2742 216° Southwest 419 482 34,000  Level Boston Center
Wed 07:52:47 PM 41.2936 -72.3628 215° Southwest 419 482 34,000  Level Boston Center
Wed 07:53:46 PM 41.1978 -72.4594 217° Southwest 430 495 34,000  Level Boston Center
Wed 07:54:48 PM 41.1019 -72.5475 215° Southwest 430 495 34,000  Level Boston Center
Wed 07:55:46 PM 41.0019 -72.6436 216° Southwest 436 502 34,000  Level Boston Center
Wed 07:56:46 PM 40.9078 -72.7339 216° Southwest 431 496 34,000  Level Boston Center
Wed 07:57:48 PM 40.8117 -72.8239 215° Southwest 431 496 34,000  Level Boston Center
Wed 07:58:47 PM 40.7219 -72.9028 214° Southwest 431 496 34,000  Level Boston Center
Wed 07:59:47 PM 40.6444 -72.9761 216° Southwest 431 496 34,000  Level Boston Center
Wed 08:00:46 PM 40.5292 -73.0817 215° Southwest 431 496 34,000 -252 Level Boston Center
Wed 08:01:46 PM 40.4369 -73.1708 216° Southwest 431 496 33,500 -694 Descending Boston Center
Wed 08:02:47 PM 40.3428 -73.2622 217° Southwest 431 496 32,600 -744 Descending Boston Center
Wed 08:03:47 PM 40.2442 -73.3508 214° Southwest 431 496 32,000 -850 Descending Boston Center
Wed 08:04:47 PM 40.1475 -73.4417 216° Southwest 431 496 30,900 -1,174 Descending Boston Center
Wed 08:05:19 PM 40.0869 -73.4981 215° Southwest 432 497 30,200 -1,043 Descending Washington Center
Wed 08:06:19 PM 39.9903 -73.5850 215° Southwest 432 497 29,300 -900 Descending Washington Center
Wed 08:07:19 PM 39.8919 -73.6769 216° Southwest 432 497 28,400 -650 Descending Washington Center
Wed 08:08:19 PM 39.7933 -73.7686 216° Southwest 439 505 28,000 -200 Descending Washington Center
Wed 08:09:19 PM 39.6925 -73.8575 214° Southwest 439 505 28,000  Level Washington Center
Wed 08:10:19 PM 39.5897 -73.9489 214° Southwest 445 512 28,000  Level Washington Center
Wed 08:11:19 PM 39.4867 -74.0453 216° Southwest 450 518 28,000  Level Washington Center
Wed 08:12:19 PM 39.3817 -74.1389 215° Southwest 455 524 28,000 -300 Level Washington Center
Wed 08:13:19 PM 39.2786 -74.2322 215° Southwest 461 531 27,400 -1,500 Descending Washington Center
Wed 08:14:19 PM 39.1794 -74.3197 214° Southwest 449 517 25,000 -2,400 Descending Washington Center
Wed 08:15:19 PM 39.0867 -74.4017 214° Southwest 437 503 22,600 -2,350 Descending Washington Center
Wed 08:16:19 PM 38.9978 -74.4806 215° Southwest 411 473 20,300 -2,000 Descending Washington Center
Wed 08:17:19 PM 38.9358 -74.5694 228° Southwest 349 402 18,600 -1,250 Descending Washington Center
Wed 08:18:19 PM 38.9119 -74.6872 255° West 341 392 17,800 -800 Descending Washington Center
Wed 08:19:19 PM 38.8897 -74.7994 256° West 333 383 17,000 -750 Descending Washington Center
Wed 08:20:19 PM 38.8675 -74.9144 256° West 327 376 16,300 -500 Descending Washington Center
Wed 08:21:19 PM 38.8453 -75.0267 256° West 327 376 16,000 -500 Descending Washington Center
Wed 08:22:19 PM 38.8247 -75.1414 257° West 327 376 15,300 -850 Descending Washington Center
Wed 08:23:19 PM 38.8086 -75.2533 260° West 327 376 14,300 -650 Descending Washington Center
Wed 08:24:19 PM 38.8025 -75.3678 266° West 332 382 14,000 -150 Descending Washington Center
Wed 08:25:19 PM 38.7944 -75.4825 265° West 332 382 14,000  Level Washington Center
Wed 08:26:19 PM 38.7883 -75.5969 266° West 332 382 14,000 -300 Level Washington Center
Wed 08:27:19 PM 38.7797 -75.7142 265° West 332 382 13,400 -800 Descending Washington Center
Wed 08:28:19 PM 38.7714 -75.8233 264° West 332 382 12,400 -1,000 Descending Washington Center
Wed 08:29:19 PM 38.7628 -75.9325 264° West 327 376 11,400 -700 Descending Washington Center
Wed 08:30:19 PM 38.7583 -76.0308 267° West 305 351 11,000 -350 Descending Washington Center
Wed 08:31:19 PM 38.7578 -76.1242 270° West 279 321 10,700 -850 Descending Washington Center
Wed 08:32:19 PM 38.7533 -76.2172 267° West 270 311 9,300 -1,300 Descending Washington Center
Wed 08:33:19 PM 38.7947 -76.2869 307° West 243 280 8,100 -1,200 Descending Washington Center
Wed 08:34:19 PM 38.8483 -76.3458 319° Northwest 240 276 6,900 -1,250 Descending Washington Center
Wed 08:35:19 PM 38.9003 -76.4025 320° Northwest 240 276 5,600 -1,446 Descending Washington Center
Wed 08:35:42 PM 38.9167 -76.4167 326° Northwest 250 288 4,900 -1,143 Descending Potomac TRACON
Wed 08:36:43 PM 38.9667 -76.4833 314° West 248 285 4,000 -992 Descending Potomac TRACON
Wed 08:37:43 PM 39.0333 -76.5333 330° Northwest 251 289 2,900 -850 Descending Potomac TRACON
Wed 08:38:43 PM 39.0833 -76.5833 322° Northwest 201 231 2,300 -789 Descending Potomac TRACON
Wed 08:39:37 PM 39.1167 -76.6167 322° Northwest 166 191 1,400 -895 Descending Potomac TRACON
Wed 08:40:37 PM 39.1500 -76.6500 322° Northwest 152 175 600 -800 Descending Potomac TRACON
Wed 08:42:00 PM 39.1667 -76.6667 308° West  Level FlightAware Approximate
Wed 08:49:00 PM 39.1754 -76.6683 308° West  Level Estimated
Wed 08:50:00 PM 39.1754 -76.6683 308° West  Level Estimated
Wed 08:51:00 PM 39.1754 -76.6683 308° West  Level Estimated
Wed 08:52:00 PM 39.1754 -76.6683 308° West  Level Estimated
Wed 08:53:00 PM 39.1754 -76.6683 308° West  Level Estimated

Login

Don't have an account? Register now (free) for customized features, flight alerts, and more!